createdAt,value
2023-05-10T00:00:20.059Z,93877.00
2023-05-10T00:01:20.081Z,93879.00
2023-05-10T00:02:20.118Z,93877.00
2023-05-10T00:03:20.205Z,93877.00
2023-05-10T00:04:20.186Z,93879.00
2023-05-10T00:05:20.171Z,93879.00
2023-05-10T00:06:20.148Z,93879.00
2023-05-10T00:07:20.149Z,93881.00
2023-05-10T00:08:20.192Z,93881.00
2023-05-10T00:09:20.214Z,93881.00
2023-05-10T00:10:20.234Z,93881.00
2023-05-10T00:11:22.270Z,93881.00
2023-05-10T00:12:20.218Z,93883.00
2023-05-10T00:13:20.242Z,93879.00
2023-05-10T00:14:20.175Z,93883.00
2023-05-10T00:15:20.186Z,93885.00
2023-05-10T00:16:20.283Z,93879.00
2023-05-10T00:17:20.179Z,93877.00
2023-05-10T00:18:20.206Z,93875.00
2023-05-10T00:19:20.148Z,93875.00
2023-05-10T00:20:20.138Z,93873.00
2023-05-10T00:21:20.136Z,93875.00
2023-05-10T00:22:20.151Z,93873.00
2023-05-10T00:23:20.126Z,93873.00
2023-05-10T00:24:20.140Z,93873.00
2023-05-10T00:25:20.132Z,93871.00
2023-05-10T00:26:20.117Z,93875.00
2023-05-10T00:27:20.130Z,93871.00
2023-05-10T00:28:20.132Z,93875.00
2023-05-10T00:29:20.096Z,93875.00
2023-05-10T00:30:20.081Z,93875.00
2023-05-10T00:31:20.105Z,93875.00
2023-05-10T00:32:20.170Z,93873.00
2023-05-10T00:33:20.089Z,93873.00
2023-05-10T00:34:20.096Z,93871.00
2023-05-10T00:35:20.072Z,93871.00
2023-05-10T00:36:20.036Z,93871.00
2023-05-10T00:37:20.040Z,93871.00
2023-05-10T00:38:20.037Z,93871.00
2023-05-10T00:39:20.021Z,93871.00
2023-05-10T00:40:20.039Z,93873.00
2023-05-10T00:41:20.058Z,93864.00
2023-05-10T00:42:20.006Z,93862.00
2023-05-10T00:43:19.996Z,93871.00
2023-05-10T00:44:19.987Z,93862.00
2023-05-10T00:45:19.979Z,93864.00
2023-05-10T00:46:20.067Z,93860.00
2023-05-10T00:47:19.991Z,93860.00
2023-05-10T00:48:19.979Z,93860.00
2023-05-10T00:49:19.959Z,93860.00
2023-05-10T00:50:19.974Z,93860.00
2023-05-10T00:51:19.965Z,93860.00
2023-05-10T00:52:19.931Z,93858.00
2023-05-10T00:53:19.954Z,93858.00
2023-05-10T00:54:19.945Z,93860.00
2023-05-10T00:55:19.923Z,93860.00
2023-05-10T00:56:19.922Z,93854.00
2023-05-10T00:57:19.917Z,93858.00
2023-05-10T00:58:19.895Z,93856.00
2023-05-10T00:59:19.923Z,93854.00
2023-05-10T01:00:19.875Z,93856.00
2023-05-10T01:01:19.921Z,93858.00
2023-05-10T01:02:19.945Z,93858.00
2023-05-10T01:03:20.100Z,93858.00
2023-05-10T01:04:19.847Z,93856.00
2023-05-10T01:05:19.887Z,93856.00
2023-05-10T01:06:19.857Z,93852.00
2023-05-10T01:07:19.835Z,93850.00
2023-05-10T01:08:19.851Z,93848.00
2023-05-10T01:09:19.836Z,93848.00
2023-05-10T01:10:19.830Z,93848.00
2023-05-10T01:11:19.841Z,93848.00
2023-05-10T01:12:19.908Z,93850.00
2023-05-10T01:13:19.885Z,93848.00
2023-05-10T01:14:19.781Z,93848.00
2023-05-10T01:15:19.816Z,93850.00
2023-05-10T01:16:19.804Z,93846.00
2023-05-10T01:17:19.807Z,93846.00
2023-05-10T01:18:19.797Z,93850.00
2023-05-10T01:19:19.768Z,93848.00
2023-05-10T01:20:19.886Z,93848.00
2023-05-10T01:21:19.824Z,93852.00
2023-05-10T01:22:19.755Z,93852.00
2023-05-10T01:23:19.760Z,93850.00
2023-05-10T01:24:19.772Z,93852.00
2023-05-10T01:25:19.730Z,93854.00
2023-05-10T01:26:19.705Z,93854.00
2023-05-10T01:27:19.718Z,93856.00
2023-05-10T01:28:19.696Z,93856.00
2023-05-10T01:29:19.731Z,93858.00
2023-05-10T01:31:19.758Z,93858.00
2023-05-10T01:32:19.663Z,93858.00
2023-05-10T01:33:19.684Z,93856.00
2023-05-10T01:34:19.679Z,93856.00
2023-05-10T01:35:19.663Z,93858.00
2023-05-10T01:36:19.651Z,93858.00
2023-05-10T01:37:19.631Z,93860.00
2023-05-10T01:38:19.623Z,93862.00
2023-05-10T01:39:19.643Z,93860.00
2023-05-10T01:40:19.628Z,93864.00
2023-05-10T01:41:19.700Z,93862.00
2023-05-10T01:42:19.626Z,93864.00
2023-05-10T01:43:19.612Z,93871.00
2023-05-10T01:44:19.585Z,93871.00
2023-05-10T01:45:19.597Z,93871.00
2023-05-10T01:46:19.658Z,93873.00
2023-05-10T01:47:19.578Z,93873.00
2023-05-10T01:48:19.588Z,93877.00
2023-05-10T01:49:19.569Z,93877.00
2023-05-10T01:50:19.669Z,93879.00
2023-05-10T01:51:19.560Z,93881.00
2023-05-10T01:52:19.527Z,93883.00
2023-05-10T01:53:19.519Z,93883.00
2023-05-10T01:54:19.549Z,93887.00
2023-05-10T01:55:19.576Z,93885.00
2023-05-10T01:56:19.526Z,93885.00
2023-05-10T01:57:19.497Z,93889.00
2023-05-10T01:58:19.521Z,93889.00
2023-05-10T01:59:19.536Z,93893.00
2023-05-10T02:00:19.490Z,93893.00
2023-05-10T02:01:19.547Z,93893.00
2023-05-10T02:02:19.483Z,93895.00
2023-05-10T02:03:19.516Z,93895.00
2023-05-10T02:04:19.492Z,93897.00
2023-05-10T02:05:19.445Z,93899.00
2023-05-10T02:06:19.449Z,93899.00
2023-05-10T02:07:19.459Z,93899.00
2023-05-10T02:08:19.431Z,93903.00
2023-05-10T02:09:19.419Z,93903.00
2023-05-10T02:10:19.524Z,93905.00
2023-05-10T02:11:19.407Z,93905.00
2023-05-10T02:12:19.400Z,93905.00
2023-05-10T02:13:19.456Z,93909.00
2023-05-10T02:14:19.393Z,93905.00
2023-05-10T02:15:19.410Z,93907.00
2023-05-10T02:16:19.515Z,93905.00
2023-05-10T02:17:19.368Z,93907.00
2023-05-10T02:18:19.400Z,93909.00
2023-05-10T02:19:19.353Z,93907.00
2023-05-10T02:20:19.556Z,93909.00
2023-05-10T02:21:19.336Z,93909.00
2023-05-10T02:22:19.401Z,93911.00
2023-05-10T02:23:19.318Z,93909.00
2023-05-10T02:24:19.335Z,93907.00
2023-05-10T02:25:19.322Z,93909.00
2023-05-10T02:26:19.328Z,93909.00
2023-05-10T02:27:19.307Z,93909.00
2023-05-10T02:28:19.312Z,93907.00
2023-05-10T02:29:19.306Z,93911.00
2023-05-10T02:30:19.280Z,93909.00
2023-05-10T02:31:19.358Z,93913.00
2023-05-10T02:32:19.281Z,93911.00
2023-05-10T02:33:19.256Z,93913.00
2023-05-10T02:34:19.345Z,93913.00
2023-05-10T02:35:19.248Z,93915.00
2023-05-10T02:36:19.280Z,93911.00
2023-05-10T02:37:19.269Z,93917.00
2023-05-10T02:38:19.232Z,93911.00
2023-05-10T02:39:19.246Z,93917.00
2023-05-10T02:40:19.385Z,93917.00
2023-05-10T02:41:19.221Z,93913.00
2023-05-10T02:42:19.219Z,93911.00
2023-05-10T02:43:19.212Z,93909.00
2023-05-10T02:44:19.199Z,93907.00
2023-05-10T02:45:19.184Z,93905.00
2023-05-10T02:46:19.218Z,93903.00
2023-05-10T02:47:19.165Z,93905.00
2023-05-10T02:48:19.174Z,93903.00
2023-05-10T02:49:19.182Z,93905.00
2023-05-10T02:50:19.226Z,93907.00
2023-05-10T02:51:19.215Z,93905.00
2023-05-10T02:52:19.161Z,93909.00
2023-05-10T02:53:19.141Z,93907.00
2023-05-10T02:54:19.163Z,93903.00
2023-05-10T02:55:19.156Z,93905.00
2023-05-10T02:56:19.119Z,93907.00
2023-05-10T02:57:19.156Z,93907.00
2023-05-10T02:58:19.139Z,93905.00
2023-05-10T02:59:19.124Z,93907.00
2023-05-10T03:00:19.138Z,93905.00
2023-05-10T03:01:19.149Z,93909.00
2023-05-10T03:02:19.139Z,93911.00
2023-05-10T03:03:19.140Z,93911.00
2023-05-10T03:04:19.214Z,93913.00
2023-05-10T03:05:19.132Z,93911.00
2023-05-10T03:06:19.142Z,93913.00
2023-05-10T03:07:19.152Z,93911.00
2023-05-10T03:08:19.184Z,93911.00
2023-05-10T03:09:19.166Z,93913.00
2023-05-10T03:10:19.364Z,93911.00
2023-05-10T03:11:19.149Z,93911.00
2023-05-10T03:12:19.159Z,93913.00
2023-05-10T03:13:19.236Z,93913.00
2023-05-10T03:14:19.191Z,93917.00
2023-05-10T03:15:19.195Z,93917.00
2023-05-10T03:16:19.230Z,93917.00
2023-05-10T03:17:19.184Z,93918.00
2023-05-10T03:18:19.202Z,93918.00
2023-05-10T03:19:19.222Z,93920.00
2023-05-10T03:20:19.218Z,93920.00
2023-05-10T03:21:19.219Z,93922.00
2023-05-10T03:22:19.224Z,93922.00
2023-05-10T03:23:19.235Z,93922.00
2023-05-10T03:24:19.215Z,93920.00
2023-05-10T03:25:19.216Z,93920.00
2023-05-10T03:26:19.276Z,93920.00
2023-05-10T03:27:19.221Z,93924.00
2023-05-10T03:28:19.282Z,93928.00
2023-05-10T03:29:19.281Z,93928.00
2023-05-10T03:30:19.418Z,93932.00
2023-05-10T03:31:19.266Z,93928.00
2023-05-10T03:32:19.222Z,93934.00
2023-05-10T03:33:19.226Z,93936.00
2023-05-10T03:34:19.232Z,93936.00
2023-05-10T03:35:19.227Z,93936.00
2023-05-10T03:36:19.274Z,93936.00
2023-05-10T03:37:19.279Z,93936.00
2023-05-10T03:38:19.317Z,93934.00
2023-05-10T03:39:19.346Z,93936.00
2023-05-10T03:40:19.539Z,93934.00
2023-05-10T03:41:19.362Z,93936.00
2023-05-10T03:42:19.419Z,93938.00
2023-05-10T03:43:19.432Z,93936.00
2023-05-10T03:44:19.428Z,93936.00
2023-05-10T03:45:19.490Z,93938.00
2023-05-10T03:46:19.443Z,93936.00
2023-05-10T03:47:19.450Z,93936.00
2023-05-10T03:48:19.437Z,93936.00
2023-05-10T03:49:19.452Z,93936.00
2023-05-10T03:50:19.603Z,93932.00
2023-05-10T03:51:19.484Z,93936.00
2023-05-10T03:52:19.529Z,93936.00
2023-05-10T03:53:19.533Z,93934.00
2023-05-10T03:54:19.543Z,93934.00
2023-05-10T03:55:19.540Z,93936.00
2023-05-10T03:56:19.539Z,93936.00
2023-05-10T03:57:19.523Z,93936.00
2023-05-10T03:58:19.539Z,93940.00
2023-05-10T03:59:19.546Z,93936.00
2023-05-10T04:00:19.714Z,93938.00
2023-05-10T04:01:19.547Z,93938.00
2023-05-10T04:02:19.589Z,93938.00
2023-05-10T04:03:19.704Z,93938.00
2023-05-10T04:04:19.959Z,93936.00
2023-05-10T04:05:19.660Z,93938.00
2023-05-10T04:06:19.711Z,93936.00
2023-05-10T04:07:19.658Z,93938.00
2023-05-10T04:08:19.668Z,93936.00
2023-05-10T04:09:19.723Z,93936.00
2023-05-10T04:10:19.766Z,93938.00
2023-05-10T04:11:19.693Z,93938.00
2023-05-10T04:12:19.692Z,93938.00
2023-05-10T04:13:19.742Z,93940.00
2023-05-10T04:14:19.701Z,93940.00
2023-05-10T04:15:19.717Z,93940.00
2023-05-10T04:16:19.782Z,93940.00
2023-05-10T04:17:19.751Z,93938.00
2023-05-10T04:18:19.704Z,93940.00
2023-05-10T04:19:19.822Z,93940.00
2023-05-10T04:20:19.767Z,93938.00
2023-05-10T04:21:19.694Z,93938.00
2023-05-10T04:22:19.722Z,93938.00
2023-05-10T04:23:19.699Z,93938.00
2023-05-10T04:24:19.705Z,93940.00
2023-05-10T04:25:19.702Z,93944.00
2023-05-10T04:26:19.693Z,93940.00
2023-05-10T04:27:19.705Z,93942.00
2023-05-10T04:28:19.744Z,93940.00
2023-05-10T04:29:19.695Z,93942.00
2023-05-10T04:30:19.692Z,93942.00
2023-05-10T04:31:19.828Z,93942.00
2023-05-10T04:32:19.700Z,93942.00
2023-05-10T04:33:19.696Z,93940.00
2023-05-10T04:34:20.128Z,93942.00
2023-05-10T04:35:19.721Z,93940.00
2023-05-10T04:36:19.717Z,93940.00
2023-05-10T04:37:19.714Z,93940.00
2023-05-10T04:38:19.722Z,93942.00
2023-05-10T04:39:19.728Z,93942.00
2023-05-10T04:40:19.745Z,93940.00
2023-05-10T04:41:19.741Z,93944.00
2023-05-10T04:42:19.749Z,93942.00
2023-05-10T04:43:19.764Z,93948.00
2023-05-10T04:44:19.783Z,93948.00
2023-05-10T04:45:19.769Z,93950.00
2023-05-10T04:46:19.817Z,93948.00
2023-05-10T04:47:19.777Z,93950.00
2023-05-10T04:48:19.751Z,93952.00
2023-05-10T04:49:19.754Z,93952.00
2023-05-10T04:50:19.787Z,93962.00
2023-05-10T04:51:19.797Z,93950.00
2023-05-10T04:52:19.794Z,93954.00
2023-05-10T04:53:19.799Z,93952.00
2023-05-10T04:54:19.795Z,93956.00
2023-05-10T04:55:19.782Z,93956.00
2023-05-10T04:56:19.801Z,93958.00
2023-05-10T04:57:19.824Z,93964.00
2023-05-10T04:58:19.818Z,93969.00
2023-05-10T04:59:19.836Z,93965.00
2023-05-10T05:00:19.830Z,93965.00
2023-05-10T05:01:19.854Z,93965.00
2023-05-10T05:02:19.852Z,93965.00
2023-05-10T05:03:19.978Z,93967.00
2023-05-10T05:04:19.836Z,93969.00
2023-05-10T05:05:19.858Z,93973.00
2023-05-10T05:06:19.841Z,93971.00
2023-05-10T05:07:19.865Z,93973.00
2023-05-10T05:08:19.844Z,93973.00
2023-05-10T05:09:19.875Z,93973.00
2023-05-10T05:10:20.122Z,93973.00
2023-05-10T05:11:19.866Z,93973.00
2023-05-10T05:12:19.870Z,93973.00
2023-05-10T05:13:19.927Z,93975.00
2023-05-10T05:14:19.870Z,93971.00
2023-05-10T05:15:19.880Z,93975.00
2023-05-10T05:16:19.886Z,93977.00
2023-05-10T05:17:19.870Z,93977.00
2023-05-10T05:18:19.898Z,93975.00
2023-05-10T05:19:19.905Z,93975.00
2023-05-10T05:20:20.007Z,93973.00
2023-05-10T05:21:19.960Z,93979.00
2023-05-10T05:22:19.909Z,93975.00
2023-05-10T05:23:19.924Z,93977.00
2023-05-10T05:24:19.933Z,93979.00
2023-05-10T05:25:19.934Z,93987.00
2023-05-10T05:26:19.955Z,93985.00
2023-05-10T05:27:19.956Z,93989.00
2023-05-10T05:28:19.974Z,93991.00
2023-05-10T05:29:19.977Z,93987.00
2023-05-10T05:30:20.011Z,93987.00
2023-05-10T05:31:20.081Z,93987.00
2023-05-10T05:32:20.020Z,93987.00
2023-05-10T05:33:20.029Z,93987.00
2023-05-10T05:34:20.155Z,93991.00
2023-05-10T05:35:20.055Z,93989.00
2023-05-10T05:36:20.042Z,93991.00
2023-05-10T05:37:20.044Z,93991.00
2023-05-10T05:38:20.073Z,93991.00
2023-05-10T05:39:20.044Z,93989.00
2023-05-10T05:40:20.036Z,93989.00
2023-05-10T05:41:20.074Z,93987.00
2023-05-10T05:42:20.083Z,93989.00
2023-05-10T05:43:20.165Z,93993.00
2023-05-10T05:44:20.236Z,93991.00
2023-05-10T05:45:20.426Z,93993.00
2023-05-10T05:46:20.353Z,93991.00
2023-05-10T05:47:20.400Z,93993.00
2023-05-10T05:48:20.447Z,93995.00
2023-05-10T05:49:20.686Z,93997.00
2023-05-10T05:50:20.529Z,93999.00
2023-05-10T05:51:20.584Z,93999.00
2023-05-10T05:52:20.619Z,94001.00
2023-05-10T05:53:20.681Z,94001.00
2023-05-10T05:54:21.141Z,94001.00
2023-05-10T05:55:20.758Z,94003.00
2023-05-10T05:56:20.789Z,94005.00
2023-05-10T05:57:20.814Z,94001.00
2023-05-10T05:58:20.870Z,93995.00
2023-05-10T05:59:20.893Z,93997.00
2023-05-10T06:00:20.936Z,94001.00
2023-05-10T06:01:21.014Z,93999.00
2023-05-10T06:02:21.096Z,93997.00
2023-05-10T06:03:21.220Z,94001.00
2023-05-10T06:04:21.137Z,94001.00
2023-05-10T06:05:21.080Z,94001.00
2023-05-10T06:06:21.104Z,94001.00
2023-05-10T06:07:21.117Z,94001.00
2023-05-10T06:08:21.149Z,94007.00
2023-05-10T06:09:21.162Z,94009.00
2023-05-10T06:10:21.192Z,94011.00
2023-05-10T06:11:21.221Z,94013.00
2023-05-10T06:12:21.260Z,94011.00
2023-05-10T06:13:21.280Z,94009.00
2023-05-10T06:14:21.277Z,94013.00
2023-05-10T06:15:21.678Z,94015.00
2023-05-10T06:16:21.327Z,94015.00
2023-05-10T06:17:21.291Z,94015.00
2023-05-10T06:18:21.300Z,94015.00
2023-05-10T06:19:21.670Z,94015.00
2023-05-10T06:20:21.669Z,94015.00
2023-05-10T06:21:21.492Z,94013.00
2023-05-10T06:22:21.551Z,94017.00
2023-05-10T06:23:21.624Z,94017.00
2023-05-10T06:24:21.660Z,94017.00
2023-05-10T06:25:21.709Z,94017.00
2023-05-10T06:26:21.742Z,94017.00
2023-05-10T06:27:21.785Z,94019.00
2023-05-10T06:28:21.806Z,94017.00
2023-05-10T06:29:21.848Z,94019.00
2023-05-10T06:30:22.199Z,94017.00
2023-05-10T06:31:21.934Z,94015.00
2023-05-10T06:32:21.957Z,94019.00
2023-05-10T06:33:22.020Z,94017.00
2023-05-10T06:34:22.183Z,94017.00
2023-05-10T06:35:22.042Z,94017.00
2023-05-10T06:36:22.072Z,94019.00
2023-05-10T06:37:22.063Z,94022.00
2023-05-10T06:38:22.095Z,94028.00
2023-05-10T06:39:22.131Z,94026.00
2023-05-10T06:40:22.132Z,94026.00
2023-05-10T06:41:24.604Z,94024.00
2023-05-10T06:42:22.367Z,94026.00
2023-05-10T06:43:22.412Z,94022.00
2023-05-10T06:44:22.415Z,94024.00
2023-05-10T06:45:22.424Z,94022.00
2023-05-10T06:46:22.431Z,94022.00
2023-05-10T06:47:22.412Z,94022.00
2023-05-10T06:48:22.567Z,94022.00
2023-05-10T06:49:22.415Z,94020.00
2023-05-10T06:50:22.428Z,94020.00
2023-05-10T06:51:22.424Z,94024.00
2023-05-10T06:52:22.419Z,94022.00
2023-05-10T06:53:22.404Z,94022.00
2023-05-10T06:54:22.400Z,94022.00
2023-05-10T06:55:22.410Z,94019.00
2023-05-10T06:56:22.446Z,94017.00
2023-05-10T06:57:31.224Z,94022.00
2023-05-10T06:58:23.411Z,94019.00
2023-05-10T06:59:23.236Z,94019.00
2023-05-10T07:00:22.393Z,94019.00
2023-05-10T07:01:22.443Z,94015.00
2023-05-10T07:02:22.418Z,94017.00
2023-05-10T07:03:22.466Z,94015.00
2023-05-10T07:04:22.406Z,94017.00
2023-05-10T07:05:22.429Z,94015.00
2023-05-10T07:06:32.774Z,94017.00
2023-05-10T07:07:23.327Z,94015.00
2023-05-10T07:08:22.341Z,94015.00
2023-05-10T07:09:22.329Z,94009.00
2023-05-10T07:10:22.334Z,94007.00
2023-05-10T07:11:22.362Z,94007.00
2023-05-10T07:12:22.338Z,94011.00
2023-05-10T07:13:22.349Z,94007.00
2023-05-10T07:14:22.294Z,94009.00
2023-05-10T07:15:22.289Z,94007.00
2023-05-10T07:16:22.338Z,94007.00
2023-05-10T07:17:22.331Z,94011.00
2023-05-10T07:18:22.376Z,94011.00
2023-05-10T07:19:22.357Z,94011.00
2023-05-10T07:20:22.421Z,94013.00
2023-05-10T07:21:22.500Z,94013.00
2023-05-10T07:22:22.534Z,94011.00
2023-05-10T07:23:22.594Z,94013.00
2023-05-10T07:24:22.662Z,94013.00
2023-05-10T07:25:22.727Z,94017.00
2023-05-10T07:26:22.793Z,94017.00
2023-05-10T07:27:22.834Z,94017.00
2023-05-10T07:28:22.871Z,94020.00
2023-05-10T07:29:22.936Z,94020.00
2023-05-10T07:30:22.969Z,94019.00
2023-05-10T07:31:22.917Z,94019.00
2023-05-10T07:32:23.274Z,94015.00
2023-05-10T07:33:23.004Z,94017.00
2023-05-10T07:34:22.972Z,94015.00
2023-05-10T07:35:23.013Z,94013.00
2023-05-10T07:36:23.046Z,94015.00
2023-05-10T07:37:23.065Z,94019.00
2023-05-10T07:38:23.105Z,94015.00
2023-05-10T07:39:27.476Z,94017.00
2023-05-10T07:40:24.150Z,94017.00
2023-05-10T07:41:23.145Z,94015.00
2023-05-10T07:42:23.145Z,94017.00
2023-05-10T07:43:23.229Z,94017.00
2023-05-10T07:44:23.124Z,94017.00
2023-05-10T07:45:23.137Z,94015.00
2023-05-10T07:46:23.214Z,94019.00
2023-05-10T07:47:23.122Z,94015.00
2023-05-10T07:48:23.100Z,94017.00
2023-05-10T07:49:23.192Z,94017.00
2023-05-10T07:50:23.203Z,94020.00
2023-05-10T07:51:23.097Z,94022.00
2023-05-10T07:52:23.097Z,94022.00
2023-05-10T07:53:23.067Z,94022.00
2023-05-10T07:54:23.057Z,94024.00
2023-05-10T07:55:23.207Z,94026.00
2023-05-10T07:56:23.041Z,94024.00
2023-05-10T07:57:23.016Z,94024.00
2023-05-10T07:58:23.028Z,94026.00
2023-05-10T07:59:23.011Z,94022.00
2023-05-10T08:00:23.197Z,94022.00
2023-05-10T08:01:23.012Z,94022.00
2023-05-10T08:02:23.066Z,94022.00
2023-05-10T08:03:23.012Z,94022.00
2023-05-10T08:04:23.017Z,94022.00
2023-05-10T08:05:23.005Z,94024.00
2023-05-10T08:06:22.969Z,94028.00
2023-05-10T08:07:22.956Z,94026.00
2023-05-10T08:08:22.998Z,94026.00
2023-05-10T08:09:22.981Z,94028.00
2023-05-10T08:10:22.957Z,94028.00
2023-05-10T08:11:22.938Z,94030.00
2023-05-10T08:12:22.941Z,94026.00
2023-05-10T08:13:22.951Z,94028.00
2023-05-10T08:14:22.930Z,94030.00
2023-05-10T08:15:23.235Z,94030.00
2023-05-10T08:16:23.013Z,94030.00
2023-05-10T08:17:24.825Z,94032.00
2023-05-10T08:18:23.055Z,94030.00
2023-05-10T08:19:22.947Z,94030.00
2023-05-10T08:20:23.227Z,94032.00
2023-05-10T08:21:22.996Z,94030.00
2023-05-10T08:22:22.979Z,94032.00
2023-05-10T08:23:22.991Z,94034.00
2023-05-10T08:24:23.035Z,94032.00
2023-05-10T08:25:23.014Z,94032.00
2023-05-10T08:26:23.054Z,94032.00
2023-05-10T08:27:23.056Z,94032.00
2023-05-10T08:28:23.087Z,94032.00
2023-05-10T08:29:23.112Z,94034.00
2023-05-10T08:30:23.134Z,94034.00
2023-05-10T08:31:23.150Z,94034.00
2023-05-10T08:32:23.150Z,94034.00
2023-05-10T08:33:23.186Z,94030.00
2023-05-10T08:34:23.417Z,94032.00
2023-05-10T08:35:23.213Z,94034.00
2023-05-10T08:36:23.253Z,94034.00
2023-05-10T08:37:23.262Z,94036.00
2023-05-10T08:38:23.315Z,94036.00
2023-05-10T08:39:29.780Z,94038.00
2023-05-10T08:40:24.315Z,94038.00
2023-05-10T08:41:23.366Z,94040.00
2023-05-10T08:42:23.264Z,94042.00
2023-05-10T08:43:23.280Z,94040.00
2023-05-10T08:44:23.279Z,94042.00
2023-05-10T08:45:23.759Z,94042.00
2023-05-10T08:46:24.229Z,94042.00
2023-05-10T08:47:23.296Z,94042.00
2023-05-10T08:48:23.253Z,94044.00
2023-05-10T08:49:23.255Z,94042.00
2023-05-10T08:50:23.240Z,94040.00
2023-05-10T08:51:23.230Z,94044.00
2023-05-10T08:52:23.224Z,94040.00
2023-05-10T08:53:23.228Z,94042.00
2023-05-10T08:54:23.237Z,94042.00
2023-05-10T08:55:23.232Z,94042.00
2023-05-10T08:56:23.218Z,94042.00
2023-05-10T08:57:23.185Z,94042.00
2023-05-10T08:58:23.220Z,94048.00
2023-05-10T08:59:23.186Z,94046.00
2023-05-10T09:00:23.181Z,94046.00
2023-05-10T09:01:23.319Z,94046.00
2023-05-10T09:02:23.174Z,94046.00
2023-05-10T09:03:23.239Z,94048.00
2023-05-10T09:04:23.198Z,94048.00
2023-05-10T09:05:23.184Z,94048.00
2023-05-10T09:06:23.140Z,94050.00
2023-05-10T09:07:23.137Z,94048.00
2023-05-10T09:08:23.128Z,94050.00
2023-05-10T09:09:23.110Z,94050.00
2023-05-10T09:10:23.228Z,94050.00
2023-05-10T09:11:23.103Z,94048.00
2023-05-10T09:12:23.118Z,94050.00
2023-05-10T09:13:23.103Z,94050.00
2023-05-10T09:14:23.082Z,94046.00
2023-05-10T09:15:23.248Z,94046.00
2023-05-10T09:16:23.176Z,94046.00
2023-05-10T09:17:23.147Z,94048.00
2023-05-10T09:18:23.101Z,94046.00
2023-05-10T09:19:23.083Z,94048.00
2023-05-10T09:20:23.240Z,94046.00
2023-05-10T09:21:23.143Z,94048.00
2023-05-10T09:22:23.201Z,94046.00
2023-05-10T09:23:23.221Z,94044.00
2023-05-10T09:24:23.254Z,94046.00
2023-05-10T09:25:23.754Z,94046.00
2023-05-10T09:26:23.352Z,94048.00
2023-05-10T09:27:23.323Z,94048.00
2023-05-10T09:28:23.332Z,94046.00
2023-05-10T09:29:23.286Z,94050.00
2023-05-10T09:30:23.740Z,94052.00
2023-05-10T09:31:23.567Z,94050.00
2023-05-10T09:32:23.344Z,94052.00
2023-05-10T09:33:23.296Z,94056.00
2023-05-10T09:34:23.301Z,94056.00
2023-05-10T09:35:23.293Z,94056.00
2023-05-10T09:36:23.735Z,94056.00
2023-05-10T09:37:23.316Z,94058.00
2023-05-10T09:38:23.316Z,94058.00
2023-05-10T09:39:23.316Z,94060.00
2023-05-10T09:40:23.339Z,94060.00
2023-05-10T09:41:23.337Z,94058.00
2023-05-10T09:42:23.315Z,94062.00
2023-05-10T09:43:23.344Z,94062.00
2023-05-10T09:44:23.347Z,94066.00
2023-05-10T09:45:23.758Z,94062.00
2023-05-10T09:46:23.396Z,94062.00
2023-05-10T09:47:23.436Z,94064.00
2023-05-10T09:48:23.373Z,94066.00
2023-05-10T09:49:23.357Z,94066.00
2023-05-10T09:50:23.759Z,94066.00
2023-05-10T09:51:23.362Z,94073.00
2023-05-10T09:52:23.365Z,94067.00
2023-05-10T09:53:23.357Z,94071.00
2023-05-10T09:54:23.358Z,94069.00
2023-05-10T09:55:23.391Z,94069.00
2023-05-10T09:56:23.367Z,94069.00
2023-05-10T09:57:23.343Z,94071.00
2023-05-10T09:58:23.367Z,94073.00
2023-05-10T09:59:23.348Z,94067.00
2023-05-10T10:00:23.357Z,94071.00
2023-05-10T10:01:23.412Z,94067.00
2023-05-10T10:02:23.380Z,94066.00
2023-05-10T10:03:23.376Z,94069.00
2023-05-10T10:04:23.354Z,94066.00
2023-05-10T10:05:23.333Z,94067.00
2023-05-10T10:06:30.027Z,94064.00
2023-05-10T10:07:24.349Z,94066.00
2023-05-10T10:08:23.331Z,94064.00
2023-05-10T10:09:23.312Z,94066.00
2023-05-10T10:10:23.311Z,94062.00
2023-05-10T10:11:23.310Z,94056.00
2023-05-10T10:12:23.296Z,94058.00
2023-05-10T10:13:23.293Z,94058.00
2023-05-10T10:14:23.287Z,94062.00
2023-05-10T10:15:23.514Z,94062.00
2023-05-10T10:16:23.857Z,94066.00
2023-05-10T10:17:23.314Z,94066.00
2023-05-10T10:18:23.251Z,94066.00
2023-05-10T10:19:23.244Z,94064.00
2023-05-10T10:20:23.244Z,94066.00
2023-05-10T10:21:23.281Z,94066.00
2023-05-10T10:22:23.232Z,94071.00
2023-05-10T10:23:23.273Z,94069.00
2023-05-10T10:24:23.294Z,94069.00
2023-05-10T10:25:23.388Z,94071.00
2023-05-10T10:26:23.773Z,94069.00
2023-05-10T10:27:23.490Z,94067.00
2023-05-10T10:28:24.018Z,94064.00
2023-05-10T10:29:23.558Z,94067.00
2023-05-10T10:30:23.531Z,94066.00
2023-05-10T10:31:23.617Z,94064.00
2023-05-10T10:32:23.548Z,94066.00
2023-05-10T10:33:28.479Z,94064.00
2023-05-10T10:34:24.511Z,94066.00
2023-05-10T10:35:23.521Z,94066.00
2023-05-10T10:36:23.797Z,94071.00
2023-05-10T10:37:23.503Z,94067.00
2023-05-10T10:38:23.494Z,94067.00
2023-05-10T10:39:23.489Z,94066.00
2023-05-10T10:40:23.479Z,94069.00
2023-05-10T10:41:23.474Z,94069.00
2023-05-10T10:42:23.464Z,94066.00
2023-05-10T10:43:23.447Z,94066.00
2023-05-10T10:44:23.506Z,94067.00
2023-05-10T10:45:23.435Z,94069.00
2023-05-10T10:46:23.474Z,94071.00
2023-05-10T10:47:23.466Z,94071.00
2023-05-10T10:48:23.412Z,94073.00
2023-05-10T10:49:23.443Z,94075.00
2023-05-10T10:50:23.410Z,94071.00
2023-05-10T10:51:23.424Z,94075.00
2023-05-10T10:52:23.399Z,94073.00
2023-05-10T10:53:23.447Z,94071.00
2023-05-10T10:54:23.390Z,94075.00
2023-05-10T10:55:23.396Z,94075.00
2023-05-10T10:56:23.428Z,94075.00
2023-05-10T10:57:23.427Z,94075.00
2023-05-10T10:58:23.441Z,94075.00
2023-05-10T10:59:23.431Z,94075.00
2023-05-10T11:00:23.446Z,94079.00
2023-05-10T11:01:23.517Z,94077.00
2023-05-10T11:02:23.525Z,94073.00
2023-05-10T11:03:23.486Z,94077.00
2023-05-10T11:04:23.549Z,94079.00
2023-05-10T11:05:23.505Z,94077.00
2023-05-10T11:06:23.788Z,94083.00
2023-05-10T11:07:23.524Z,94081.00
2023-05-10T11:08:23.543Z,94079.00
2023-05-10T11:09:23.555Z,94077.00
2023-05-10T11:10:23.575Z,94079.00
2023-05-10T11:11:23.596Z,94075.00
2023-05-10T11:12:23.661Z,94077.00
2023-05-10T11:13:23.633Z,94071.00
2023-05-10T11:14:23.693Z,94071.00
2023-05-10T11:15:23.695Z,94069.00
2023-05-10T11:16:23.734Z,94069.00
2023-05-10T11:17:23.857Z,94069.00
2023-05-10T11:18:23.776Z,94071.00
2023-05-10T11:19:23.798Z,94071.00
2023-05-10T11:20:23.825Z,94067.00
2023-05-10T11:21:23.855Z,94067.00
2023-05-10T11:22:23.891Z,94073.00
2023-05-10T11:23:23.909Z,94069.00
2023-05-10T11:24:23.915Z,94069.00
2023-05-10T11:25:23.935Z,94071.00
2023-05-10T11:26:23.963Z,94071.00
2023-05-10T11:27:23.948Z,94067.00
2023-05-10T11:28:23.976Z,94066.00
2023-05-10T11:29:23.980Z,94067.00
2023-05-10T11:30:23.972Z,94067.00
2023-05-10T11:31:24.054Z,94067.00
2023-05-10T11:32:24.117Z,94064.00
2023-05-10T11:33:24.082Z,94069.00
2023-05-10T11:34:24.066Z,94067.00
2023-05-10T11:35:24.118Z,94066.00
2023-05-10T11:36:24.203Z,94066.00
2023-05-10T11:37:24.233Z,94066.00
2023-05-10T11:38:24.288Z,94066.00
2023-05-10T11:39:24.330Z,94066.00
2023-05-10T11:40:24.393Z,94067.00
2023-05-10T11:41:24.460Z,94069.00
2023-05-10T11:42:24.488Z,94071.00
2023-05-10T11:43:24.556Z,94071.00
2023-05-10T11:44:24.586Z,94069.00
2023-05-10T11:45:24.645Z,94075.00